ROMMA est une association bénévole à but non lucratif. Votre soutien est indispensable : ADHERER à ROMMA ou FAIRE un DON

Tourrette-Levens - (06, Alpes-Maritimes)

Côte-d'Azur (416 m)   Longitude: 07° 16' 12" E   Latitude: 43° 47' 24" N Station partenaire n°152
 

Détail journalier du     <<     >>

Température Precipitation Humidité Pression Vent Dir Rafale Dir. rafale Ensol.
Heure (°C) (mm) (%) (hPa) (km/h) (km/h) (min)
01:00 5.905110013SE13NNO0
02:00 5.605110013ENE18O0
03:00 4.405510012ENE11OSO0
04:00 4.105810022NO5SO0
05:00 3.006610021S5S0
06:00 3.306710031OSO5NNO0
07:00 3.006610032SSO8SSE0
08:00 4.906010032NO10SSE0
09:00 8.704510036OSO26OSO32
10:00 11.104310046E26NNE60
11:00 11.304510057S21SO60
12:00 12.704310058SSO21SO60
13:00 13.404610057ESE18SE58
14:00 14.404010057ESE23SSE60
15:00 14.404510057ESE23SSE60
16:00 13.404910057E21SE60
17:00 12.806110057ESE21ESE60
18:00 10.907610055ESE18E3
19:00 9.908310054NE16NE0
20:00 9.908310063SE13SE3
21:00 9.408510073SE15SSE0
22:00 9.608510072SE10SSE0
23:00 9.308610081ENE8ENE0
minuit 7.708810081E5ESE0

Graphique du 05-04-2019

 

Serveur OMMA